sensor_id;sensor_type;location;lat;lon;timestamp;temperature;humidity
1700;DHT22;847;48.058;7.810;2024-02-28T00:01:08;8.70;99.00
1700;DHT22;847;48.058;7.810;2024-02-28T00:03:36;8.70;99.00
1700;DHT22;847;48.058;7.810;2024-02-28T00:06:03;8.70;99.00
1700;DHT22;847;48.058;7.810;2024-02-28T00:08:30;8.60;99.00
1700;DHT22;847;48.058;7.810;2024-02-28T00:10:56;8.60;99.00
1700;DHT22;847;48.058;7.810;2024-02-28T00:13:23;8.60;99.00
1700;DHT22;847;48.058;7.810;2024-02-28T00:15:50;8.60;99.00
1700;DHT22;847;48.058;7.810;2024-02-28T00:18:17;8.60;99.00
1700;DHT22;847;48.058;7.810;2024-02-28T00:20:46;8.70;99.00
1700;DHT22;847;48.058;7.810;2024-02-28T00:23:12;8.60;99.00
1700;DHT22;847;48.058;7.810;2024-02-28T00:25:39;8.60;99.00
1700;DHT22;847;48.058;7.810;2024-02-28T00:28:06;8.60;99.00
1700;DHT22;847;48.058;7.810;2024-02-28T00:30:33;8.60;99.00
1700;DHT22;847;48.058;7.810;2024-02-28T00:33:00;8.60;99.00
1700;DHT22;847;48.058;7.810;2024-02-28T00:35:27;8.60;99.00
1700;DHT22;847;48.058;7.810;2024-02-28T00:37:55;8.60;99.00
1700;DHT22;847;48.058;7.810;2024-02-28T00:40:22;8.60;99.00
1700;DHT22;847;48.058;7.810;2024-02-28T00:42:50;8.60;99.00
1700;DHT22;847;48.058;7.810;2024-02-28T00:45:17;8.50;99.00
1700;DHT22;847;48.058;7.810;2024-02-28T00:47:44;8.50;99.00
1700;DHT22;847;48.058;7.810;2024-02-28T00:50:11;8.50;99.00
1700;DHT22;847;48.058;7.810;2024-02-28T00:52:37;8.30;99.00
1700;DHT22;847;48.058;7.810;2024-02-28T00:55:06;8.20;99.00
1700;DHT22;847;48.058;7.810;2024-02-28T00:57:33;8.20;99.00
1700;DHT22;847;48.058;7.810;2024-02-28T01:00:01;8.10;99.00
1700;DHT22;847;48.058;7.810;2024-02-28T01:02:28;8.10;99.00
1700;DHT22;847;48.058;7.810;2024-02-28T01:04:55;8.00;99.00
1700;DHT22;847;48.058;7.810;2024-02-28T01:07:21;8.00;99.00
1700;DHT22;847;48.058;7.810;2024-02-28T01:09:48;7.90;99.00
1700;DHT22;847;48.058;7.810;2024-02-28T01:12:16;8.00;99.00
1700;DHT22;847;48.058;7.810;2024-02-28T01:14:43;8.00;99.00
1700;DHT22;847;48.058;7.810;2024-02-28T01:17:10;7.80;99.00
1700;DHT22;847;48.058;7.810;2024-02-28T01:19:37;7.90;99.00
1700;DHT22;847;48.058;7.810;2024-02-28T01:22:04;7.80;99.00
1700;DHT22;847;48.058;7.810;2024-02-28T01:24:30;7.80;99.00
1700;DHT22;847;48.058;7.810;2024-02-28T01:26:59;7.80;99.00
1700;DHT22;847;48.058;7.810;2024-02-28T01:29:27;7.90;99.00
1700;DHT22;847;48.058;7.810;2024-02-28T01:31:55;7.90;99.00
1700;DHT22;847;48.058;7.810;2024-02-28T01:34:22;7.90;99.00
1700;DHT22;847;48.058;7.810;2024-02-28T01:36:49;7.90;99.00
1700;DHT22;847;48.058;7.810;2024-02-28T01:39:15;7.80;99.00
1700;DHT22;847;48.058;7.810;2024-02-28T01:41:51;7.80;99.00
1700;DHT22;847;48.058;7.810;2024-02-28T01:44:17;7.80;99.00
1700;DHT22;847;48.058;7.810;2024-02-28T01:46:46;7.80;99.00
1700;DHT22;847;48.058;7.810;2024-02-28T01:49:13;7.80;99.00
1700;DHT22;847;48.058;7.810;2024-02-28T01:51:41;7.80;99.00
1700;DHT22;847;48.058;7.810;2024-02-28T01:54:08;7.70;99.00
1700;DHT22;847;48.058;7.810;2024-02-28T01:56:36;7.70;99.00
1700;DHT22;847;48.058;7.810;2024-02-28T01:59:04;7.70;99.00
1700;DHT22;847;48.058;7.810;2024-02-28T02:01:31;7.70;99.00
1700;DHT22;847;48.058;7.810;2024-02-28T02:03:59;7.80;99.00
1700;DHT22;847;48.058;7.810;2024-02-28T02:06:26;7.80;99.00
1700;DHT22;847;48.058;7.810;2024-02-28T02:08:52;7.70;99.00
1700;DHT22;847;48.058;7.810;2024-02-28T02:11:20;7.70;99.00
1700;DHT22;847;48.058;7.810;2024-02-28T02:13:48;7.70;99.00
1700;DHT22;847;48.058;7.810;2024-02-28T02:16:15;7.60;99.00
1700;DHT22;847;48.058;7.810;2024-02-28T02:18:42;7.70;99.00
1700;DHT22;847;48.058;7.810;2024-02-28T02:21:13;7.70;99.00
1700;DHT22;847;48.058;7.810;2024-02-28T02:23:43;7.60;99.00
1700;DHT22;847;48.058;7.810;2024-02-28T02:26:10;7.50;99.00
1700;DHT22;847;48.058;7.810;2024-02-28T02:28:36;7.50;99.00
1700;DHT22;847;48.058;7.810;2024-02-28T02:31:03;7.50;99.00
1700;DHT22;847;48.058;7.810;2024-02-28T02:33:30;7.40;99.00
1700;DHT22;847;48.058;7.810;2024-02-28T02:35:58;7.40;99.00
1700;DHT22;847;48.058;7.810;2024-02-28T02:38:24;7.40;99.00
1700;DHT22;847;48.058;7.810;2024-02-28T02:40:53;7.40;99.00
1700;DHT22;847;48.058;7.810;2024-02-28T02:43:20;7.40;99.00
1700;DHT22;847;48.058;7.810;2024-02-28T02:45:46;7.40;99.00
1700;DHT22;847;48.058;7.810;2024-02-28T02:48:13;7.30;99.00
1700;DHT22;847;48.058;7.810;2024-02-28T02:50:40;7.30;99.00
1700;DHT22;847;48.058;7.810;2024-02-28T02:53:09;7.30;99.00
1700;DHT22;847;48.058;7.810;2024-02-28T02:55:36;7.30;99.00
1700;DHT22;847;48.058;7.810;2024-02-28T02:58:04;7.20;99.00
1700;DHT22;847;48.058;7.810;2024-02-28T03:00:31;7.30;99.00
1700;DHT22;847;48.058;7.810;2024-02-28T03:02:58;7.20;99.00
1700;DHT22;847;48.058;7.810;2024-02-28T03:05:25;7.10;99.00
1700;DHT22;847;48.058;7.810;2024-02-28T03:07:51;7.10;99.00
1700;DHT22;847;48.058;7.810;2024-02-28T03:10:18;7.10;99.00
1700;DHT22;847;48.058;7.810;2024-02-28T03:12:45;7.10;99.00
1700;DHT22;847;48.058;7.810;2024-02-28T03:15:13;7.10;99.00
1700;DHT22;847;48.058;7.810;2024-02-28T03:17:40;7.10;99.00
1700;DHT22;847;48.058;7.810;2024-02-28T03:20:08;7.00;99.00
1700;DHT22;847;48.058;7.810;2024-02-28T03:22:35;7.00;99.00
1700;DHT22;847;48.058;7.810;2024-02-28T03:25:02;7.00;99.00
1700;DHT22;847;48.058;7.810;2024-02-28T03:27:29;7.00;99.00
1700;DHT22;847;48.058;7.810;2024-02-28T03:29:55;7.00;99.00
1700;DHT22;847;48.058;7.810;2024-02-28T03:32:24;7.10;99.00
1700;DHT22;847;48.058;7.810;2024-02-28T03:34:50;7.10;99.00
1700;DHT22;847;48.058;7.810;2024-02-28T03:37:17;7.10;99.00
1700;DHT22;847;48.058;7.810;2024-02-28T03:39:44;7.00;99.00
1700;DHT22;847;48.058;7.810;2024-02-28T03:42:11;7.00;99.00
1700;DHT22;847;48.058;7.810;2024-02-28T03:44:37;7.00;99.00
1700;DHT22;847;48.058;7.810;2024-02-28T03:47:04;7.10;99.00
1700;DHT22;847;48.058;7.810;2024-02-28T03:49:33;7.10;99.00
1700;DHT22;847;48.058;7.810;2024-02-28T03:51:59;7.00;99.00
1700;DHT22;847;48.058;7.810;2024-02-28T03:54:26;7.00;99.00
1700;DHT22;847;48.058;7.810;2024-02-28T03:56:53;7.00;99.00
1700;DHT22;847;48.058;7.810;2024-02-28T03:59:20;7.00;99.00
1700;DHT22;847;48.058;7.810;2024-02-28T04:01:47;7.00;99.00
1700;DHT22;847;48.058;7.810;2024-02-28T04:04:13;7.10;99.00
1700;DHT22;847;48.058;7.810;2024-02-28T04:06:42;7.10;99.00
1700;DHT22;847;48.058;7.810;2024-02-28T04:09:09;7.10;99.00
1700;DHT22;847;48.058;7.810;2024-02-28T04:11:37;7.10;99.00
1700;DHT22;847;48.058;7.810;2024-02-28T04:14:03;7.00;99.00
1700;DHT22;847;48.058;7.810;2024-02-28T04:16:30;6.90;99.00
1700;DHT22;847;48.058;7.810;2024-02-28T04:18:57;6.90;99.00
1700;DHT22;847;48.058;7.810;2024-02-28T04:21:24;6.90;99.00
1700;DHT22;847;48.058;7.810;2024-02-28T04:23:52;6.90;99.00
1700;DHT22;847;48.058;7.810;2024-02-28T04:26:19;6.90;99.00
1700;DHT22;847;48.058;7.810;2024-02-28T04:28:45;6.90;99.00
1700;DHT22;847;48.058;7.810;2024-02-28T04:31:12;6.80;99.00
1700;DHT22;847;48.058;7.810;2024-02-28T04:33:39;6.90;99.00
1700;DHT22;847;48.058;7.810;2024-02-28T04:36:06;6.80;99.00
1700;DHT22;847;48.058;7.810;2024-02-28T04:38:33;6.80;99.00
1700;DHT22;847;48.058;7.810;2024-02-28T04:41:01;6.80;99.00
1700;DHT22;847;48.058;7.810;2024-02-28T04:43:28;6.80;99.00
1700;DHT22;847;48.058;7.810;2024-02-28T04:45:55;6.80;99.00
1700;DHT22;847;48.058;7.810;2024-02-28T04:48:22;6.90;99.00
1700;DHT22;847;48.058;7.810;2024-02-28T04:50:49;6.90;99.00
1700;DHT22;847;48.058;7.810;2024-02-28T04:53:16;6.90;99.00
1700;DHT22;847;48.058;7.810;2024-02-28T04:55:42;6.80;99.00
1700;DHT22;847;48.058;7.810;2024-02-28T04:58:10;6.80;99.00
1700;DHT22;847;48.058;7.810;2024-02-28T05:00:37;6.80;99.00
1700;DHT22;847;48.058;7.810;2024-02-28T05:03:04;6.70;99.00
1700;DHT22;847;48.058;7.810;2024-02-28T05:05:31;6.70;99.00
1700;DHT22;847;48.058;7.810;2024-02-28T05:07:58;6.60;99.00
1700;DHT22;847;48.058;7.810;2024-02-28T05:10:24;6.70;99.00
1700;DHT22;847;48.058;7.810;2024-02-28T05:12:51;6.70;99.00
1700;DHT22;847;48.058;7.810;2024-02-28T05:15:19;6.70;99.00
1700;DHT22;847;48.058;7.810;2024-02-28T05:17:46;6.60;99.00
1700;DHT22;847;48.058;7.810;2024-02-28T05:20:13;6.60;99.00
1700;DHT22;847;48.058;7.810;2024-02-28T05:22:40;6.50;99.00
1700;DHT22;847;48.058;7.810;2024-02-28T05:25:08;6.40;99.00
1700;DHT22;847;48.058;7.810;2024-02-28T05:27:35;6.40;99.00
1700;DHT22;847;48.058;7.810;2024-02-28T05:30:02;6.40;99.00
1700;DHT22;847;48.058;7.810;2024-02-28T05:32:32;6.30;99.00
1700;DHT22;847;48.058;7.810;2024-02-28T05:34:59;6.40;99.00
1700;DHT22;847;48.058;7.810;2024-02-28T05:37:26;6.30;99.00
1700;DHT22;847;48.058;7.810;2024-02-28T05:39:53;6.20;99.00
1700;DHT22;847;48.058;7.810;2024-02-28T05:42:20;6.10;99.00
1700;DHT22;847;48.058;7.810;2024-02-28T05:44:48;6.10;99.00
1700;DHT22;847;48.058;7.810;2024-02-28T05:47:15;6.00;99.00
1700;DHT22;847;48.058;7.810;2024-02-28T05:49:43;6.00;99.00
1700;DHT22;847;48.058;7.810;2024-02-28T05:52:10;5.90;99.00
1700;DHT22;847;48.058;7.810;2024-02-28T05:54:37;5.90;99.00
1700;DHT22;847;48.058;7.810;2024-02-28T05:57:04;5.90;99.00
1700;DHT22;847;48.058;7.810;2024-02-28T05:59:31;6.00;99.00
1700;DHT22;847;48.058;7.810;2024-02-28T06:01:57;6.00;99.00
1700;DHT22;847;48.058;7.810;2024-02-28T06:04:24;6.00;99.00
1700;DHT22;847;48.058;7.810;2024-02-28T06:06:52;6.00;99.00
1700;DHT22;847;48.058;7.810;2024-02-28T06:09:19;5.90;99.00
1700;DHT22;847;48.058;7.810;2024-02-28T06:11:46;5.90;99.00
1700;DHT22;847;48.058;7.810;2024-02-28T06:14:13;5.90;99.00
1700;DHT22;847;48.058;7.810;2024-02-28T06:16:40;5.90;99.00
1700;DHT22;847;48.058;7.810;2024-02-28T06:19:06;5.80;99.00
1700;DHT22;847;48.058;7.810;2024-02-28T06:21:33;5.90;99.00
1700;DHT22;847;48.058;7.810;2024-02-28T06:24:01;5.80;99.00
1700;DHT22;847;48.058;7.810;2024-02-28T06:26:29;5.70;99.00
1700;DHT22;847;48.058;7.810;2024-02-28T06:28:56;5.60;99.00
1700;DHT22;847;48.058;7.810;2024-02-28T06:31:27;5.70;99.00
1700;DHT22;847;48.058;7.810;2024-02-28T06:33:55;5.70;99.00
1700;DHT22;847;48.058;7.810;2024-02-28T06:36:21;5.80;99.00
1700;DHT22;847;48.058;7.810;2024-02-28T06:38:48;5.90;99.00
1700;DHT22;847;48.058;7.810;2024-02-28T06:41:17;5.90;99.00
1700;DHT22;847;48.058;7.810;2024-02-28T06:43:44;5.90;99.00
1700;DHT22;847;48.058;7.810;2024-02-28T06:46:11;5.90;99.00
1700;DHT22;847;48.058;7.810;2024-02-28T06:48:38;5.80;99.00
1700;DHT22;847;48.058;7.810;2024-02-28T06:51:05;5.70;99.00
1700;DHT22;847;48.058;7.810;2024-02-28T06:53:31;5.60;99.00
1700;DHT22;847;48.058;7.810;2024-02-28T06:55:58;5.60;99.00
1700;DHT22;847;48.058;7.810;2024-02-28T06:58:26;5.70;99.00
1700;DHT22;847;48.058;7.810;2024-02-28T07:00:53;5.60;99.00
1700;DHT22;847;48.058;7.810;2024-02-28T07:03:20;5.60;99.00
1700;DHT22;847;48.058;7.810;2024-02-28T07:05:47;5.60;99.00
1700;DHT22;847;48.058;7.810;2024-02-28T07:08:14;5.70;99.00
1700;DHT22;847;48.058;7.810;2024-02-28T07:10:41;5.70;99.00
1700;DHT22;847;48.058;7.810;2024-02-28T07:13:09;5.60;99.00
1700;DHT22;847;48.058;7.810;2024-02-28T07:15:37;5.60;99.00
1700;DHT22;847;48.058;7.810;2024-02-28T07:18:05;5.50;99.00
1700;DHT22;847;48.058;7.810;2024-02-28T07:20:32;5.50;99.00
1700;DHT22;847;48.058;7.810;2024-02-28T07:22:59;5.40;99.00
1700;DHT22;847;48.058;7.810;2024-02-28T07:25:25;5.40;99.00
1700;DHT22;847;48.058;7.810;2024-02-28T07:27:53;5.40;99.00
1700;DHT22;847;48.058;7.810;2024-02-28T07:30:19;5.40;99.00
1700;DHT22;847;48.058;7.810;2024-02-28T07:32:48;5.40;99.00
1700;DHT22;847;48.058;7.810;2024-02-28T07:35:14;5.40;99.00
1700;DHT22;847;48.058;7.810;2024-02-28T07:37:41;5.40;99.00
1700;DHT22;847;48.058;7.810;2024-02-28T07:40:09;5.40;99.00
1700;DHT22;847;48.058;7.810;2024-02-28T07:42:35;5.30;99.00
1700;DHT22;847;48.058;7.810;2024-02-28T07:45:02;5.30;99.00
1700;DHT22;847;48.058;7.810;2024-02-28T07:47:29;5.40;99.00
1700;DHT22;847;48.058;7.810;2024-02-28T07:49:58;5.40;99.00
1700;DHT22;847;48.058;7.810;2024-02-28T07:52:24;5.40;99.00
1700;DHT22;847;48.058;7.810;2024-02-28T07:54:51;5.40;99.00
1700;DHT22;847;48.058;7.810;2024-02-28T07:57:18;5.40;99.00
1700;DHT22;847;48.058;7.810;2024-02-28T07:59:45;5.50;99.00
1700;DHT22;847;48.058;7.810;2024-02-28T08:02:11;5.50;99.00
1700;DHT22;847;48.058;7.810;2024-02-28T08:04:39;5.60;99.00
1700;DHT22;847;48.058;7.810;2024-02-28T08:07:07;5.60;99.00
1700;DHT22;847;48.058;7.810;2024-02-28T08:09:34;5.50;99.00
1700;DHT22;847;48.058;7.810;2024-02-28T08:12:01;5.50;99.00
1700;DHT22;847;48.058;7.810;2024-02-28T08:14:27;5.50;99.00
1700;DHT22;847;48.058;7.810;2024-02-28T08:16:54;5.60;99.00
1700;DHT22;847;48.058;7.810;2024-02-28T08:19:21;5.60;99.00
1700;DHT22;847;48.058;7.810;2024-02-28T08:21:48;5.70;99.00
1700;DHT22;847;48.058;7.810;2024-02-28T08:24:16;5.70;99.00
1700;DHT22;847;48.058;7.810;2024-02-28T08:26:43;5.70;99.00
1700;DHT22;847;48.058;7.810;2024-02-28T08:29:10;5.70;99.00
1700;DHT22;847;48.058;7.810;2024-02-28T08:31:40;5.60;99.00
1700;DHT22;847;48.058;7.810;2024-02-28T08:34:08;5.60;99.00
1700;DHT22;847;48.058;7.810;2024-02-28T08:36:35;5.60;99.00
1700;DHT22;847;48.058;7.810;2024-02-28T08:39:02;5.60;99.00
1700;DHT22;847;48.058;7.810;2024-02-28T08:41:32;5.60;99.00
1700;DHT22;847;48.058;7.810;2024-02-28T08:43:58;5.70;99.00
1700;DHT22;847;48.058;7.810;2024-02-28T08:46:25;5.70;99.00
1700;DHT22;847;48.058;7.810;2024-02-28T08:48:52;5.80;99.00
1700;DHT22;847;48.058;7.810;2024-02-28T08:51:19;5.80;99.00
1700;DHT22;847;48.058;7.810;2024-02-28T08:53:45;5.90;99.00
1700;DHT22;847;48.058;7.810;2024-02-28T08:56:12;6.00;99.00
1700;DHT22;847;48.058;7.810;2024-02-28T08:58:40;6.00;99.00
1700;DHT22;847;48.058;7.810;2024-02-28T09:01:07;6.10;99.00
1700;DHT22;847;48.058;7.810;2024-02-28T09:03:34;6.10;99.00
1700;DHT22;847;48.058;7.810;2024-02-28T09:06:01;6.20;99.00
1700;DHT22;847;48.058;7.810;2024-02-28T09:08:27;6.20;99.00
1700;DHT22;847;48.058;7.810;2024-02-28T09:10:54;6.20;99.00
1700;DHT22;847;48.058;7.810;2024-02-28T09:13:21;6.20;99.00
1700;DHT22;847;48.058;7.810;2024-02-28T09:15:49;6.30;99.00
1700;DHT22;847;48.058;7.810;2024-02-28T09:18:16;6.40;99.00
1700;DHT22;847;48.058;7.810;2024-02-28T09:20:43;6.40;99.00
1700;DHT22;847;48.058;7.810;2024-02-28T09:23:09;6.50;99.00
1700;DHT22;847;48.058;7.810;2024-02-28T09:25:36;6.50;99.00
1700;DHT22;847;48.058;7.810;2024-02-28T09:28:03;6.60;99.00
1700;DHT22;847;48.058;7.810;2024-02-28T09:30:30;6.60;99.00
1700;DHT22;847;48.058;7.810;2024-02-28T09:32:58;6.70;99.00
1700;DHT22;847;48.058;7.810;2024-02-28T09:35:25;6.70;99.00
1700;DHT22;847;48.058;7.810;2024-02-28T09:37:51;6.70;99.00
1700;DHT22;847;48.058;7.810;2024-02-28T09:40:18;6.70;99.00
1700;DHT22;847;48.058;7.810;2024-02-28T09:42:48;6.80;99.00
1700;DHT22;847;48.058;7.810;2024-02-28T09:45:20;6.80;99.00
1700;DHT22;847;48.058;7.810;2024-02-28T09:47:46;6.80;99.00
1700;DHT22;847;48.058;7.810;2024-02-28T09:50:15;6.90;99.00
1700;DHT22;847;48.058;7.810;2024-02-28T09:52:44;6.90;99.00
1700;DHT22;847;48.058;7.810;2024-02-28T09:55:11;7.00;99.00
1700;DHT22;847;48.058;7.810;2024-02-28T09:57:38;7.10;99.00
1700;DHT22;847;48.058;7.810;2024-02-28T10:00:06;7.10;99.00
1700;DHT22;847;48.058;7.810;2024-02-28T10:02:35;7.20;99.00
1700;DHT22;847;48.058;7.810;2024-02-28T10:05:04;7.30;99.00
1700;DHT22;847;48.058;7.810;2024-02-28T10:07:33;7.30;99.00
1700;DHT22;847;48.058;7.810;2024-02-28T10:10:00;7.40;99.00
1700;DHT22;847;48.058;7.810;2024-02-28T10:12:26;7.40;99.00
1700;DHT22;847;48.058;7.810;2024-02-28T10:14:53;7.60;99.00
1700;DHT22;847;48.058;7.810;2024-02-28T10:17:20;7.70;99.00
1700;DHT22;847;48.058;7.810;2024-02-28T10:19:46;7.80;99.00
1700;DHT22;847;48.058;7.810;2024-02-28T10:22:14;7.90;99.00
1700;DHT22;847;48.058;7.810;2024-02-28T10:24:42;7.90;99.00
1700;DHT22;847;48.058;7.810;2024-02-28T10:27:08;7.90;99.00
1700;DHT22;847;48.058;7.810;2024-02-28T10:29:35;8.10;99.00
1700;DHT22;847;48.058;7.810;2024-02-28T10:32:03;8.10;99.00
1700;DHT22;847;48.058;7.810;2024-02-28T10:34:31;8.10;99.00
1700;DHT22;847;48.058;7.810;2024-02-28T10:37:01;8.10;99.00
1700;DHT22;847;48.058;7.810;2024-02-28T10:39:30;8.10;99.00
1700;DHT22;847;48.058;7.810;2024-02-28T10:41:59;8.20;99.00
1700;DHT22;847;48.058;7.810;2024-02-28T10:44:27;8.30;99.00
1700;DHT22;847;48.058;7.810;2024-02-28T10:46:54;8.30;99.00
1700;DHT22;847;48.058;7.810;2024-02-28T10:49:21;8.40;99.00
1700;DHT22;847;48.058;7.810;2024-02-28T10:51:49;8.40;99.00
1700;DHT22;847;48.058;7.810;2024-02-28T10:54:20;8.50;99.00
1700;DHT22;847;48.058;7.810;2024-02-28T10:56:48;8.50;99.00
1700;DHT22;847;48.058;7.810;2024-02-28T10:59:16;8.60;99.00
1700;DHT22;847;48.058;7.810;2024-02-28T11:01:44;8.70;99.00
1700;DHT22;847;48.058;7.810;2024-02-28T11:04:12;8.80;99.00
1700;DHT22;847;48.058;7.810;2024-02-28T11:06:48;8.80;99.00
1700;DHT22;847;48.058;7.810;2024-02-28T11:09:19;8.90;99.00
1700;DHT22;847;48.058;7.810;2024-02-28T11:11:48;9.00;99.00
1700;DHT22;847;48.058;7.810;2024-02-28T11:14:16;9.10;99.00
1700;DHT22;847;48.058;7.810;2024-02-28T11:16:43;9.10;99.00
1700;DHT22;847;48.058;7.810;2024-02-28T11:19:19;9.10;99.00
1700;DHT22;847;48.058;7.810;2024-02-28T11:21:52;9.20;99.00
1700;DHT22;847;48.058;7.810;2024-02-28T11:24:22;9.20;99.00
1700;DHT22;847;48.058;7.810;2024-02-28T11:26:49;9.30;99.00
1700;DHT22;847;48.058;7.810;2024-02-28T11:29:22;9.40;99.00
1700;DHT22;847;48.058;7.810;2024-02-28T11:31:49;9.40;98.80
1700;DHT22;847;48.058;7.810;2024-02-28T11:34:15;9.40;98.20
1700;DHT22;847;48.058;7.810;2024-02-28T11:36:42;9.50;99.00
1700;DHT22;847;48.058;7.810;2024-02-28T11:39:09;9.50;98.50
1700;DHT22;847;48.058;7.810;2024-02-28T11:41:36;9.50;97.00
1700;DHT22;847;48.058;7.810;2024-02-28T11:44:04;9.50;98.50
1700;DHT22;847;48.058;7.810;2024-02-28T11:46:32;9.60;98.00
1700;DHT22;847;48.058;7.810;2024-02-28T11:49:01;9.50;96.30
1700;DHT22;847;48.058;7.810;2024-02-28T11:51:28;9.60;96.60
1700;DHT22;847;48.058;7.810;2024-02-28T11:53:54;9.70;96.70
1700;DHT22;847;48.058;7.810;2024-02-28T11:56:21;9.70;96.60
1700;DHT22;847;48.058;7.810;2024-02-28T11:58:51;9.70;96.90
1700;DHT22;847;48.058;7.810;2024-02-28T12:01:17;9.80;97.00
1700;DHT22;847;48.058;7.810;2024-02-28T12:03:46;9.80;95.90
1700;DHT22;847;48.058;7.810;2024-02-28T12:06:13;9.90;96.80
1700;DHT22;847;48.058;7.810;2024-02-28T12:08:39;9.90;96.40
1700;DHT22;847;48.058;7.810;2024-02-28T12:11:07;9.90;95.10
1700;DHT22;847;48.058;7.810;2024-02-28T12:13:36;10.00;95.90
1700;DHT22;847;48.058;7.810;2024-02-28T12:16:04;10.00;94.90
1700;DHT22;847;48.058;7.810;2024-02-28T12:18:31;10.00;96.60
1700;DHT22;847;48.058;7.810;2024-02-28T12:20:59;10.10;95.70
1700;DHT22;847;48.058;7.810;2024-02-28T12:23:26;10.10;94.90
1700;DHT22;847;48.058;7.810;2024-02-28T12:25:52;10.10;94.30
1700;DHT22;847;48.058;7.810;2024-02-28T12:28:19;10.00;93.80
1700;DHT22;847;48.058;7.810;2024-02-28T12:30:47;10.10;94.40
1700;DHT22;847;48.058;7.810;2024-02-28T12:33:14;10.10;94.20
1700;DHT22;847;48.058;7.810;2024-02-28T12:35:40;10.10;93.90
1700;DHT22;847;48.058;7.810;2024-02-28T12:38:08;10.10;93.30
1700;DHT22;847;48.058;7.810;2024-02-28T12:40:35;10.10;94.20
1700;DHT22;847;48.058;7.810;2024-02-28T12:43:02;10.20;95.30
1700;DHT22;847;48.058;7.810;2024-02-28T12:45:29;10.30;94.00
1700;DHT22;847;48.058;7.810;2024-02-28T12:47:56;10.30;94.40
1700;DHT22;847;48.058;7.810;2024-02-28T12:50:23;10.30;94.10
1700;DHT22;847;48.058;7.810;2024-02-28T12:52:50;10.30;93.60
1700;DHT22;847;48.058;7.810;2024-02-28T12:55:21;10.30;94.50
1700;DHT22;847;48.058;7.810;2024-02-28T12:57:47;10.40;94.40
1700;DHT22;847;48.058;7.810;2024-02-28T13:00:14;10.50;94.40
1700;DHT22;847;48.058;7.810;2024-02-28T13:02:41;10.50;93.20
1700;DHT22;847;48.058;7.810;2024-02-28T13:05:12;10.50;93.10
1700;DHT22;847;48.058;7.810;2024-02-28T13:07:40;10.60;93.30
1700;DHT22;847;48.058;7.810;2024-02-28T13:10:07;10.60;92.70
1700;DHT22;847;48.058;7.810;2024-02-28T13:12:36;10.50;91.70
1700;DHT22;847;48.058;7.810;2024-02-28T13:15:04;10.50;92.40
1700;DHT22;847;48.058;7.810;2024-02-28T13:17:31;10.60;91.70
1700;DHT22;847;48.058;7.810;2024-02-28T13:19:58;10.60;91.70
1700;DHT22;847;48.058;7.810;2024-02-28T13:22:25;10.60;91.60
1700;DHT22;847;48.058;7.810;2024-02-28T13:24:52;10.60;91.70
1700;DHT22;847;48.058;7.810;2024-02-28T13:27:19;10.60;92.30
1700;DHT22;847;48.058;7.810;2024-02-28T13:29:47;10.60;91.50
1700;DHT22;847;48.058;7.810;2024-02-28T13:32:14;10.70;92.10
1700;DHT22;847;48.058;7.810;2024-02-28T13:34:41;10.60;90.80
1700;DHT22;847;48.058;7.810;2024-02-28T13:37:08;10.60;91.10
1700;DHT22;847;48.058;7.810;2024-02-28T13:39:35;10.70;92.20
1700;DHT22;847;48.058;7.810;2024-02-28T13:42:02;10.60;91.20
1700;DHT22;847;48.058;7.810;2024-02-28T13:44:31;10.70;91.60
1700;DHT22;847;48.058;7.810;2024-02-28T13:47:01;10.70;90.80
1700;DHT22;847;48.058;7.810;2024-02-28T13:49:28;10.70;91.90
1700;DHT22;847;48.058;7.810;2024-02-28T13:51:55;10.70;91.70
1700;DHT22;847;48.058;7.810;2024-02-28T13:54:21;10.70;92.60
1700;DHT22;847;48.058;7.810;2024-02-28T13:56:48;10.80;92.60
1700;DHT22;847;48.058;7.810;2024-02-28T13:59:15;10.80;92.50
1700;DHT22;847;48.058;7.810;2024-02-28T14:01:42;10.80;91.40
1700;DHT22;847;48.058;7.810;2024-02-28T14:04:10;10.80;92.20
1700;DHT22;847;48.058;7.810;2024-02-28T14:06:37;10.80;92.10
1700;DHT22;847;48.058;7.810;2024-02-28T14:09:04;10.80;91.90
1700;DHT22;847;48.058;7.810;2024-02-28T14:11:31;10.80;91.70
1700;DHT22;847;48.058;7.810;2024-02-28T14:13:58;10.90;92.10
1700;DHT22;847;48.058;7.810;2024-02-28T14:16:25;10.90;93.10
1700;DHT22;847;48.058;7.810;2024-02-28T14:18:51;10.90;92.10
1700;DHT22;847;48.058;7.810;2024-02-28T14:21:19;11.00;91.90
1700;DHT22;847;48.058;7.810;2024-02-28T14:23:48;11.00;91.50
1700;DHT22;847;48.058;7.810;2024-02-28T14:26:14;10.90;91.40
1700;DHT22;847;48.058;7.810;2024-02-28T14:28:41;11.00;91.50
1700;DHT22;847;48.058;7.810;2024-02-28T14:31:08;10.90;91.40
1700;DHT22;847;48.058;7.810;2024-02-28T14:33:35;10.90;90.40
1700;DHT22;847;48.058;7.810;2024-02-28T14:36:02;11.00;91.50
1700;DHT22;847;48.058;7.810;2024-02-28T14:38:39;11.00;91.80
1700;DHT22;847;48.058;7.810;2024-02-28T14:41:07;11.00;91.30
1700;DHT22;847;48.058;7.810;2024-02-28T14:43:36;10.90;91.40
1700;DHT22;847;48.058;7.810;2024-02-28T14:46:03;11.00;92.10
1700;DHT22;847;48.058;7.810;2024-02-28T14:48:30;11.00;92.00
1700;DHT22;847;48.058;7.810;2024-02-28T14:50:57;11.00;91.80
1700;DHT22;847;48.058;7.810;2024-02-28T14:53:23;11.00;90.90
1700;DHT22;847;48.058;7.810;2024-02-28T14:55:52;11.00;91.30
1700;DHT22;847;48.058;7.810;2024-02-28T14:58:18;11.00;92.60
1700;DHT22;847;48.058;7.810;2024-02-28T15:00:45;10.90;92.70
1700;DHT22;847;48.058;7.810;2024-02-28T15:03:14;10.90;92.60
1700;DHT22;847;48.058;7.810;2024-02-28T15:05:41;10.90;91.30
1700;DHT22;847;48.058;7.810;2024-02-28T15:08:09;10.90;91.30
1700;DHT22;847;48.058;7.810;2024-02-28T15:10:36;10.90;91.20
1700;DHT22;847;48.058;7.810;2024-02-28T15:13:04;10.90;91.00
1700;DHT22;847;48.058;7.810;2024-02-28T15:15:33;10.90;90.70
1700;DHT22;847;48.058;7.810;2024-02-28T15:17:59;10.90;91.20
1700;DHT22;847;48.058;7.810;2024-02-28T15:20:27;10.90;91.50
1700;DHT22;847;48.058;7.810;2024-02-28T15:22:54;10.90;91.50
1700;DHT22;847;48.058;7.810;2024-02-28T15:25:21;10.90;90.90
1700;DHT22;847;48.058;7.810;2024-02-28T15:27:48;10.90;91.00
1700;DHT22;847;48.058;7.810;2024-02-28T15:30:16;10.90;90.90
1700;DHT22;847;48.058;7.810;2024-02-28T15:32:45;10.80;90.50
1700;DHT22;847;48.058;7.810;2024-02-28T15:35:12;10.80;90.60
1700;DHT22;847;48.058;7.810;2024-02-28T15:37:39;10.80;90.40
1700;DHT22;847;48.058;7.810;2024-02-28T15:40:07;10.80;90.90
1700;DHT22;847;48.058;7.810;2024-02-28T15:42:34;10.80;91.30
1700;DHT22;847;48.058;7.810;2024-02-28T15:45:01;10.80;91.80
1700;DHT22;847;48.058;7.810;2024-02-28T15:47:30;10.80;92.00
1700;DHT22;847;48.058;7.810;2024-02-28T15:49:56;10.70;91.40
1700;DHT22;847;48.058;7.810;2024-02-28T15:52:23;10.70;92.00
1700;DHT22;847;48.058;7.810;2024-02-28T15:54:50;10.70;91.90
1700;DHT22;847;48.058;7.810;2024-02-28T15:57:16;10.70;91.80
1700;DHT22;847;48.058;7.810;2024-02-28T15:59:43;10.60;91.50
1700;DHT22;847;48.058;7.810;2024-02-28T16:02:12;10.60;92.00
1700;DHT22;847;48.058;7.810;2024-02-28T16:04:40;10.60;91.90
1700;DHT22;847;48.058;7.810;2024-02-28T16:07:09;10.60;92.10
1700;DHT22;847;48.058;7.810;2024-02-28T16:09:35;10.70;92.50
1700;DHT22;847;48.058;7.810;2024-02-28T16:12:05;10.70;91.70
1700;DHT22;847;48.058;7.810;2024-02-28T16:14:33;10.60;91.00
1700;DHT22;847;48.058;7.810;2024-02-28T16:17:00;10.60;90.50
1700;DHT22;847;48.058;7.810;2024-02-28T16:19:27;10.50;90.50
1700;DHT22;847;48.058;7.810;2024-02-28T16:21:55;10.50;91.00
1700;DHT22;847;48.058;7.810;2024-02-28T16:24:21;10.60;91.00
1700;DHT22;847;48.058;7.810;2024-02-28T16:26:48;10.60;90.30
1700;DHT22;847;48.058;7.810;2024-02-28T16:29:15;10.50;90.70